Saline, MI (48176)

11:37 AM EST on December 07, 2016 (GMT -0500)
Southwest City | | Change Station

Elev 825 ft 42.17 °N, 83.79 °W | Updated 22 seconds ago

Partly Cloudy
Partly Cloudy
34.2 °F
Feels Like 29 °F
N
6.0
Wind Variable Wind from West

Today
High -- | Low -- °F
--% Chance of Precip.
Yesterday
High -- | Low -- °F
Precip. -- in
Pressure 30.04 in
Visibility 10.0 miles
Clouds Few 2200 ft
Windchill 29 °F
Dew Point 25 °F
Humidity 70%
Rainfall 0.00 in
Snow Depth Not available.
7:50 AM 5:03 PM
First Quarter, 54% visible
METAR KARB 071553Z 23009KT 10SM FEW022 01/M04 A3002 RMK AO2 SLP172 T00061039
Pressure 30.04 in
Visibility 10.0 miles
Clouds Few 2200 ft
Windchill 29 °F
Dew Point 25 °F
Humidity 70%
Rainfall 0.00 in
Snow Depth Not available.
7:50 AM 5:03 PM
First Quarter, 54% visible
METAR KARB 071553Z 23009KT 10SM FEW022 01/M04 A3002 RMK AO2 SLP172 T00061039

10-Day Weather Forecast

Almanac

Astronomy

Dec. 07, 2016 Rise Set
Actual Time
Civil Twilight
Nautical Twilight
Astronomical Twilight
Moon
Length of Visible Light
Length of Day
Tomorrow will be .
, % of the Moon is Illuminated

Today's Extremes

State Highs State Lows

Community

WunderPhotos

Upload Photos

1,956,132 photos uploaded!

WunderBlog® & News

Nearby

Air Quality

  Air Quality AQ Index Pollutant
Not available.

Snow Depth

Station Depth Elevation

Earthquake Activity

City Distance Mag. Time & Date
Minimum magnitude displayed is 2.5.

Coastal Water Temperatures

Place Temperature

Stations

Nearby Weather Stations

Station Location Temp. Windchill Dew Point Humidity Wind Precip. Elev Updated Type
                   

Watches & Warnings

There are currently no watches in effect.